Time;durP1;ratioP1;P1;durP2;ratioP2;P2;SDS_P1;SDS_P2;PMS_P1;PMS_P2;Temp;Humidity;BMP_temperature;BMP_pressure;BME280_temperature;BME280_humidity;BME280_pressure;Samples;Min_cycle;Max_cycle;Signal;HPM_P1;HPM_P2
2023/12/02 00:02:01;;;;;;;3.90;1.77;;;-0.60;99.90;;;;;;5028498;28;20060;-71
2023/12/02 00:04:27;;;;;;;4.18;2.88;;;-0.60;99.90;;;;;;4983548;28;20145;-71
2023/12/02 00:06:53;;;;;;;4.93;2.72;;;-0.60;99.90;;;;;;5030306;28;20046;-71
2023/12/02 00:09:19;;;;;;;5.10;3.17;;;-0.60;99.90;;;;;;5026901;28;20136;-71
2023/12/02 00:11:49;;;;;;;3.60;2.72;;;-0.50;99.90;;;;;;4998116;28;20514;-72
2023/12/02 00:14:15;;;;;;;4.20;2.90;;;-0.60;99.90;;;;;;5029826;28;20053;-71
2023/12/02 00:16:41;;;;;;;3.38;2.75;;;-0.50;99.90;;;;;;4997124;28;20042;-71
2023/12/02 00:19:07;;;;;;;7.25;4.97;;;-0.50;99.90;;;;;;5016648;28;20046;-71
2023/12/02 00:21:33;;;;;;;7.63;4.72;;;-0.60;99.90;;;;;;5031469;28;20042;-71
2023/12/02 00:23:58;;;;;;;4.72;3.35;;;-0.60;99.90;;;;;;5039195;28;20065;-71
2023/12/02 00:26:24;;;;;;;3.42;2.97;;;-0.60;99.90;;;;;;5037269;28;20557;-71
2023/12/02 00:28:50;;;;;;;6.07;3.05;;;-0.50;99.90;;;;;;5036959;28;20095;-71
2023/12/02 00:31:16;;;;;;;4.60;3.63;;;-0.50;99.90;;;;;;5020057;28;20030;-71
2023/12/02 00:33:42;;;;;;;4.47;3.65;;;-0.50;99.90;;;;;;5033822;28;20088;-71
2023/12/02 00:36:08;;;;;;;7.00;4.45;;;-0.50;99.90;;;;;;5033103;28;20034;-71
2023/12/02 00:38:34;;;;;;;2.83;2.53;;;-0.50;99.90;;;;;;4982529;28;20049;-71
2023/12/02 00:41:00;;;;;;;3.50;2.63;;;-0.60;99.90;;;;;;5033162;28;20073;-71
2023/12/02 00:43:26;;;;;;;5.57;3.45;;;-0.50;99.90;;;;;;5028520;28;20046;-71
2023/12/02 00:45:51;;;;;;;3.92;3.47;;;-0.60;99.90;;;;;;5030854;28;20522;-71
2023/12/02 00:48:17;;;;;;;3.10;2.28;;;-0.50;99.90;;;;;;5032855;28;20121;-71
2023/12/02 00:50:43;;;;;;;5.28;2.47;;;-0.50;99.90;;;;;;5026205;28;20140;-71
2023/12/02 00:53:09;;;;;;;5.45;3.53;;;-0.60;99.90;;;;;;4998872;28;20050;-71
2023/12/02 00:55:34;;;;;;;3.60;2.95;;;-0.60;99.90;;;;;;5016371;28;20054;-71
2023/12/02 00:58:00;;;;;;;8.18;3.15;;;-0.60;99.90;;;;;;5034629;28;20085;-71
2023/12/02 01:00:26;;;;;;;10.88;2.92;;;-0.60;99.90;;;;;;5031067;28;20478;-71
2023/12/02 01:02:52;;;;;;;6.47;4.25;;;-0.60;99.90;;;;;;4998417;28;20041;-71
2023/12/02 01:05:18;;;;;;;2.58;2.38;;;-0.60;99.90;;;;;;5034171;28;20458;-72
2023/12/02 01:07:43;;;;;;;6.93;4.07;;;-0.60;99.90;;;;;;5034964;28;20121;-71
2023/12/02 01:10:12;;;;;;;2.75;2.33;;;-0.60;99.90;;;;;;4997860;28;20431;-71
2023/12/02 01:12:39;;;;;;;5.38;2.20;;;-0.50;99.90;;;;;;5033355;28;20049;-71
2023/12/02 01:15:05;;;;;;;3.40;2.13;;;-0.60;99.90;;;;;;5032525;28;20581;-71
2023/12/02 01:17:31;;;;;;;3.45;2.42;;;-0.50;99.90;;;;;;5001258;28;20382;-71
2023/12/02 01:19:56;;;;;;;4.47;2.85;;;-0.50;99.90;;;;;;5033107;28;20050;-71
2023/12/02 01:22:22;;;;;;;3.80;3.00;;;-0.50;99.90;;;;;;5032637;28;20064;-71
2023/12/02 01:24:48;;;;;;;6.22;4.40;;;-0.50;99.90;;;;;;5033901;28;20045;-71
2023/12/02 01:27:13;;;;;;;1.67;1.55;;;-0.50;99.90;;;;;;5036320;28;20042;-71
2023/12/02 01:29:39;;;;;;;2.53;2.00;;;-0.50;99.90;;;;;;5029165;28;20049;-71
2023/12/02 01:32:05;;;;;;;3.65;2.80;;;-0.50;99.90;;;;;;5027739;28;20494;-71
2023/12/02 01:34:31;;;;;;;5.43;3.35;;;-0.50;99.90;;;;;;5032388;28;20376;-71
2023/12/02 01:36:57;;;;;;;5.07;3.47;;;-0.50;99.90;;;;;;5003492;28;20038;-71
2023/12/02 01:39:22;;;;;;;3.55;2.55;;;-0.50;99.90;;;;;;5003381;28;20109;-71
2023/12/02 01:41:48;;;;;;;6.45;3.28;;;-0.50;99.90;;;;;;4999015;28;20153;-71
2023/12/02 01:44:14;;;;;;;6.10;3.40;;;-0.50;99.90;;;;;;5033396;28;20057;-71
2023/12/02 01:46:39;;;;;;;5.05;2.63;;;-0.50;99.90;;;;;;5034509;28;20385;-71
2023/12/02 01:49:07;;;;;;;2.13;1.80;;;-0.50;99.90;;;;;;5025222;28;20053;-71
2023/12/02 01:51:34;;;;;;;3.22;2.63;;;-0.50;99.90;;;;;;5030708;28;20125;-71
2023/12/02 01:53:59;;;;;;;4.80;3.78;;;-0.50;99.90;;;;;;5015673;28;20502;-71
2023/12/02 01:56:26;;;;;;;3.38;2.70;;;-0.40;99.90;;;;;;5029831;28;20052;-71
2023/12/02 01:58:51;;;;;;;3.58;3.05;;;-0.50;99.90;;;;;;5032516;28;20101;-71
2023/12/02 02:01:18;;;;;;;4.60;2.53;;;-0.50;99.90;;;;;;5028036;28;20066;-71
2023/12/02 02:03:48;;;;;;;6.32;3.60;;;-0.50;99.90;;;;;;5032429;28;20038;-71
2023/12/02 02:06:14;;;;;;;3.42;2.47;;;-0.50;99.90;;;;;;5033172;28;20042;-71
2023/12/02 02:08:40;;;;;;;2.28;1.73;;;-0.50;99.90;;;;;;5028586;28;20046;-71
2023/12/02 02:11:06;;;;;;;8.07;3.58;;;-0.50;99.90;;;;;;5032383;28;20034;-71
2023/12/02 02:13:33;;;;;;;4.60;2.80;;;-0.50;99.90;;;;;;5036150;28;20125;-71
2023/12/02 02:15:59;;;;;;;5.18;3.25;;;-0.50;99.90;;;;;;5032593;28;20420;-72
2023/12/02 02:18:24;;;;;;;5.90;2.47;;;-0.50;99.90;;;;;;5033082;28;20038;-71
2023/12/02 02:20:51;;;;;;;4.60;3.22;;;-0.50;99.90;;;;;;4998973;28;20045;-71
2023/12/02 02:23:21;;;;;;;6.43;2.72;;;-0.50;99.90;;;;;;5035828;28;20108;-71
2023/12/02 02:25:49;;;;;;;6.38;2.92;;;-0.50;99.90;;;;;;5018678;28;20148;-71
2023/12/02 02:28:22;;;;;;;6.75;3.15;;;-0.50;99.90;;;;;;4996200;28;20046;-71
2023/12/02 02:30:48;;;;;;;2.58;2.17;;;-0.50;99.90;;;;;;4997807;28;20046;-72
2023/12/02 02:33:14;;;;;;;2.65;1.80;;;-0.50;99.90;;;;;;4999701;28;20124;-71
2023/12/02 02:35:39;;;;;;;3.97;2.30;;;-0.50;99.90;;;;;;4992990;28;20053;-72
2023/12/02 02:38:05;;;;;;;5.35;3.25;;;-0.50;99.90;;;;;;5030493;28;20262;-71
2023/12/02 02:40:31;;;;;;;3.67;1.75;;;-0.40;99.90;;;;;;5031098;28;20052;-71
2023/12/02 02:42:57;;;;;;;3.38;2.25;;;-0.50;99.90;;;;;;4999215;28;20443;-72
2023/12/02 02:45:26;;;;;;;5.10;3.10;;;-0.50;99.90;;;;;;5004568;28;20053;-72
2023/12/02 02:47:59;;;;;;;5.32;3.33;;;-0.40;99.90;;;;;;5065167;27;20185;-72
2023/12/02 02:50:26;;;;;;;6.22;3.17;;;-0.50;99.90;;;;;;5063853;28;20045;-72
2023/12/02 02:52:52;;;;;;;3.17;2.72;;;-0.50;99.90;;;;;;5054350;28;20060;-72
2023/12/02 02:55:18;;;;;;;4.18;2.33;;;-0.50;99.90;;;;;;5078096;28;20041;-72
2023/12/02 02:57:43;;;;;;;3.58;2.45;;;-0.50;99.90;;;;;;5055558;28;20033;-71
2023/12/02 03:00:10;;;;;;;3.63;2.80;;;-0.50;99.90;;;;;;5062609;28;20055;-71
2023/12/02 03:02:37;;;;;;;4.35;2.67;;;-0.50;99.90;;;;;;5061602;28;20037;-71
2023/12/02 03:05:04;;;;;;;4.32;2.97;;;-0.50;99.90;;;;;;5063789;28;20170;-72
2023/12/02 03:07:30;;;;;;;4.13;2.20;;;-0.50;99.90;;;;;;5062661;28;20051;-71
2023/12/02 03:09:56;;;;;;;4.15;2.83;;;-0.50;99.90;;;;;;5063027;28;20111;-71
2023/12/02 03:12:23;;;;;;;3.58;1.83;;;-0.50;99.90;;;;;;5062272;28;20082;-71
2023/12/02 03:14:49;;;;;;;4.60;3.40;;;-0.50;99.90;;;;;;5063790;28;20036;-72
2023/12/02 03:17:15;;;;;;;4.53;2.25;;;-0.50;99.90;;;;;;5060472;28;20256;-72
2023/12/02 03:19:41;;;;;;;6.75;3.83;;;-0.50;99.90;;;;;;5061153;28;20062;-72
2023/12/02 03:22:07;;;;;;;6.35;2.42;;;-0.50;99.90;;;;;;5063594;28;20040;-72
2023/12/02 03:24:33;;;;;;;4.03;3.53;;;-0.50;99.90;;;;;;5062833;28;20072;-72
2023/12/02 03:26:58;;;;;;;4.85;3.90;;;-0.50;99.90;;;;;;5046226;28;20043;-71
2023/12/02 03:29:24;;;;;;;7.32;4.03;;;-0.50;99.90;;;;;;5060814;28;20044;-71
2023/12/02 03:31:50;;;;;;;13.13;3.75;;;-0.50;99.90;;;;;;5061114;28;20523;-72
2023/12/02 03:34:15;;;;;;;4.32;2.88;;;-0.50;99.90;;;;;;5063119;28;20045;-72
2023/12/02 03:36:41;;;;;;;3.70;1.27;;;-0.50;99.90;;;;;;5063260;28;20131;-72
2023/12/02 03:39:07;;;;;;;5.75;3.13;;;-0.50;99.90;;;;;;5045363;28;20553;-72
2023/12/02 03:41:32;;;;;;;3.05;2.25;;;-0.50;99.90;;;;;;5063357;28;20515;-71
2023/12/02 03:43:58;;;;;;;4.97;3.47;;;-0.50;99.90;;;;;;5061782;28;20124;-72
2023/12/02 03:46:28;;;;;;;4.72;3.03;;;-0.50;99.90;;;;;;5057885;28;20083;-71
2023/12/02 03:48:53;;;;;;;2.00;1.63;;;-0.50;99.90;;;;;;5062059;28;20424;-71
2023/12/02 03:51:19;;;;;;;3.90;2.58;;;-0.60;99.90;;;;;;5062980;28;20039;-71
2023/12/02 03:53:45;;;;;;;6.50;3.30;;;-0.60;99.90;;;;;;5060059;28;20519;-71
2023/12/02 03:56:11;;;;;;;2.78;2.10;;;-0.60;99.90;;;;;;5044052;28;20045;-72
2023/12/02 03:58:37;;;;;;;7.28;3.13;;;-0.60;99.90;;;;;;5052971;28;20033;-71
2023/12/02 04:01:03;;;;;;;3.47;2.55;;;-0.60;99.90;;;;;;5049045;28;20485;-71
2023/12/02 04:03:28;;;;;;;3.75;2.40;;;-0.60;99.90;;;;;;5047768;28;20091;-71
2023/12/02 04:05:54;;;;;;;4.32;3.03;;;-0.60;99.90;;;;;;5049373;28;20148;-71
2023/12/02 04:08:20;;;;;;;5.45;2.83;;;-0.60;99.90;;;;;;5049388;28;20094;-71
2023/12/02 04:10:46;;;;;;;5.15;3.63;;;-0.70;99.90;;;;;;5049316;28;20041;-71
2023/12/02 04:13:12;;;;;;;5.00;3.03;;;-0.70;99.90;;;;;;5049863;28;20379;-71
2023/12/02 04:15:38;;;;;;;5.32;2.33;;;-0.70;99.90;;;;;;5048491;28;20049;-71
2023/12/02 04:18:03;;;;;;;5.50;3.35;;;-0.70;99.90;;;;;;5049342;28;20037;-71
2023/12/02 04:20:29;;;;;;;9.63;2.45;;;-0.70;99.90;;;;;;5045628;28;20115;-71
2023/12/02 04:22:55;;;;;;;3.63;2.35;;;-0.70;99.90;;;;;;5049074;28;20515;-71
2023/12/02 04:25:20;;;;;;;5.53;2.92;;;-0.70;99.90;;;;;;5048647;28;20494;-71
2023/12/02 04:27:46;;;;;;;4.22;3.00;;;-0.70;99.90;;;;;;5030055;28;20045;-71
2023/12/02 04:30:12;;;;;;;3.88;2.78;;;-0.70;99.90;;;;;;5030968;28;20132;-71
2023/12/02 04:32:39;;;;;;;3.35;2.67;;;-0.70;99.90;;;;;;5048316;28;20033;-71
2023/12/02 04:35:05;;;;;;;4.32;2.55;;;-0.70;99.90;;;;;;5048419;28;20037;-71
2023/12/02 04:37:32;;;;;;;6.07;3.80;;;-0.70;99.90;;;;;;5031212;28;20048;-71
2023/12/02 04:39:58;;;;;;;4.60;3.13;;;-0.70;99.90;;;;;;5046993;28;20043;-71
2023/12/02 04:42:24;;;;;;;4.93;3.10;;;-0.70;99.90;;;;;;5048827;28;20044;-70
2023/12/02 04:44:49;;;;;;;4.82;2.30;;;-0.70;99.90;;;;;;5048476;28;20083;-71
2023/12/02 04:47:16;;;;;;;3.85;2.38;;;-0.70;99.90;;;;;;5047938;28;20437;-70
2023/12/02 04:49:41;;;;;;;7.00;3.03;;;-0.60;99.90;;;;;;5046997;28;20052;-71
2023/12/02 04:52:08;;;;;;;7.38;4.38;;;-0.60;99.90;;;;;;5048246;28;20041;-71
2023/12/02 04:54:34;;;;;;;4.15;3.22;;;-0.60;99.90;;;;;;5045259;28;20086;-71
2023/12/02 04:57:00;;;;;;;5.45;3.42;;;-0.60;99.90;;;;;;5047925;28;20124;-71
2023/12/02 04:59:26;;;;;;;5.70;3.50;;;-0.60;99.90;;;;;;5031876;28;20449;-71
2023/12/02 05:01:52;;;;;;;5.97;4.18;;;-0.60;99.90;;;;;;5028888;28;20155;-71
2023/12/02 05:04:18;;;;;;;5.88;3.85;;;-0.60;99.90;;;;;;5047017;28;20102;-71
2023/12/02 05:06:44;;;;;;;6.22;3.83;;;-0.60;99.90;;;;;;5048074;28;20045;-71
2023/12/02 05:09:10;;;;;;;4.95;2.83;;;-0.50;99.90;;;;;;5048130;28;20040;-71
2023/12/02 05:11:36;;;;;;;4.82;3.70;;;-0.60;99.90;;;;;;5047814;28;20044;-71
2023/12/02 05:14:01;;;;;;;3.08;2.67;;;-0.50;99.90;;;;;;5047720;28;20114;-71
2023/12/02 05:16:27;;;;;;;5.78;3.83;;;-0.50;99.90;;;;;;5045279;28;20041;-71
2023/12/02 05:18:53;;;;;;;3.72;2.42;;;-0.50;99.90;;;;;;5047776;28;20041;-71
2023/12/02 05:21:18;;;;;;;3.78;2.67;;;-0.50;99.90;;;;;;5048057;28;20063;-71
2023/12/02 05:23:44;;;;;;;3.85;1.90;;;-0.60;99.90;;;;;;5048115;28;20446;-71
2023/12/02 05:26:11;;;;;;;4.55;3.35;;;-0.60;99.90;;;;;;5046173;28;20048;-71
2023/12/02 05:28:38;;;;;;;7.70;3.45;;;-0.60;99.90;;;;;;5048184;28;20067;-71
2023/12/02 05:31:05;;;;;;;4.68;3.22;;;-0.60;99.90;;;;;;5045960;28;20037;-71
2023/12/02 05:33:31;;;;;;;5.60;3.53;;;-0.60;99.90;;;;;;5046668;28;20029;-71
2023/12/02 05:35:57;;;;;;;5.57;3.63;;;-0.60;99.90;;;;;;5044669;28;20098;-71
2023/12/02 05:38:23;;;;;;;5.40;3.47;;;-0.50;99.90;;;;;;5048035;28;20455;-71
2023/12/02 05:40:49;;;;;;;5.43;4.22;;;-0.60;99.90;;;;;;5030455;28;20136;-71
2023/12/02 05:43:14;;;;;;;7.00;4.03;;;-0.60;99.90;;;;;;5047701;28;20507;-71
2023/12/02 05:45:40;;;;;;;4.07;2.88;;;-0.60;99.90;;;;;;5042389;28;20127;-71
2023/12/02 05:48:06;;;;;;;4.15;2.80;;;-0.60;99.90;;;;;;5047780;28;20076;-71
2023/12/02 05:50:32;;;;;;;7.28;4.05;;;-0.60;99.90;;;;;;5045606;28;20288;-71
2023/12/02 05:52:58;;;;;;;4.45;3.47;;;-0.60;99.90;;;;;;5047235;28;20513;-71
2023/12/02 05:55:26;;;;;;;3.13;2.20;;;-0.60;99.90;;;;;;5044761;28;20040;-70
2023/12/02 05:57:52;;;;;;;3.30;2.90;;;-0.60;99.90;;;;;;5043106;28;20037;-71
2023/12/02 06:00:19;;;;;;;5.03;3.35;;;-0.60;99.90;;;;;;5044536;28;20118;-71
2023/12/02 06:02:45;;;;;;;10.77;4.57;;;-0.60;99.90;;;;;;5044942;28;20041;-71
2023/12/02 06:05:10;;;;;;;5.72;3.83;;;-0.60;99.90;;;;;;5044632;28;20045;-71
2023/12/02 06:07:36;;;;;;;4.35;3.50;;;-0.60;99.90;;;;;;5046471;28;20048;-71
2023/12/02 06:10:02;;;;;;;3.83;2.67;;;-0.70;99.90;;;;;;5029889;28;20045;-71
2023/12/02 06:12:28;;;;;;;5.63;3.33;;;-0.70;99.90;;;;;;5043434;28;20136;-71
2023/12/02 06:14:54;;;;;;;6.80;3.95;;;-0.70;99.90;;;;;;5026273;28;20036;-71
2023/12/02 06:17:19;;;;;;;5.55;3.83;;;-0.70;99.90;;;;;;5028976;28;20128;-71
2023/12/02 06:19:45;;;;;;;6.95;3.53;;;-0.70;99.90;;;;;;5045356;28;20402;-71
2023/12/02 06:22:11;;;;;;;6.85;3.25;;;-0.70;99.90;;;;;;5045516;28;20048;-71
2023/12/02 06:24:36;;;;;;;6.45;4.47;;;-0.70;99.90;;;;;;5043544;28;20401;-71
2023/12/02 06:27:02;;;;;;;6.60;4.13;;;-0.60;99.90;;;;;;5044429;28;20068;-71
2023/12/02 06:29:28;;;;;;;4.40;3.60;;;-0.70;99.90;;;;;;5045937;28;20145;-71
2023/12/02 06:31:54;;;;;;;6.65;3.38;;;-0.70;99.90;;;;;;5045523;28;20572;-71
2023/12/02 06:34:20;;;;;;;6.35;2.95;;;-0.70;99.90;;;;;;5045859;28;20047;-71
2023/12/02 06:36:45;;;;;;;3.60;2.58;;;-0.70;99.90;;;;;;5045883;28;20043;-71
2023/12/02 06:39:15;;;;;;;3.22;2.55;;;-0.70;99.90;;;;;;5045638;28;20098;-71
2023/12/02 06:41:41;;;;;;;4.15;2.63;;;-0.80;99.90;;;;;;5043887;28;20571;-71
2023/12/02 06:44:08;;;;;;;4.75;4.22;;;-0.70;99.90;;;;;;5045586;28;20043;-71
2023/12/02 06:46:33;;;;;;;6.60;3.72;;;-0.80;99.90;;;;;;5044192;28;20049;-71
2023/12/02 06:49:00;;;;;;;5.43;3.47;;;-0.80;99.90;;;;;;5044826;28;20037;-71
2023/12/02 06:51:28;;;;;;;5.88;3.35;;;-0.80;99.90;;;;;;5029053;28;20338;-71
2023/12/02 06:53:58;;;;;;;5.05;2.97;;;-0.80;99.90;;;;;;5045210;28;20075;-71
2023/12/02 06:56:25;;;;;;;6.15;4.07;;;-0.80;99.90;;;;;;5024946;28;20036;-70
2023/12/02 06:58:52;;;;;;;3.55;2.15;;;-0.80;99.90;;;;;;5043716;28;20041;-71
2023/12/02 07:01:28;;;;;;;6.03;3.65;;;-0.90;99.90;;;;;;5043738;28;20041;-72
2023/12/02 07:03:58;;;;;;;5.68;2.78;;;-0.90;99.90;;;;;;5027510;28;20428;-71
2023/12/02 07:06:25;;;;;;;5.38;4.00;;;-0.90;99.90;;;;;;5039321;28;20098;-70
2023/12/02 07:08:52;;;;;;;5.63;2.75;;;-0.90;99.90;;;;;;5039628;28;20064;-71
2023/12/02 07:11:18;;;;;;;7.57;4.65;;;-0.90;99.90;;;;;;5046698;28;20067;-71
2023/12/02 07:13:44;;;;;;;6.95;2.85;;;-0.90;99.90;;;;;;5040509;28;20120;-71
2023/12/02 07:16:11;;;;;;;7.07;3.80;;;-0.90;99.90;;;;;;5044536;28;20052;-71
2023/12/02 07:18:37;;;;;;;5.65;3.35;;;-0.90;99.90;;;;;;5041405;28;20234;-70
2023/12/02 07:21:03;;;;;;;3.92;2.85;;;-0.90;99.90;;;;;;5044222;28;20451;-70
2023/12/02 07:23:29;;;;;;;11.07;5.22;;;-0.90;99.90;;;;;;5044997;28;20040;-70
2023/12/02 07:25:55;;;;;;;5.72;2.50;;;-0.90;99.90;;;;;;5045164;28;20128;-70
2023/12/02 07:28:21;;;;;;;4.43;3.25;;;-0.90;99.90;;;;;;5043406;28;20492;-71
2023/12/02 07:30:50;;;;;;;4.80;3.28;;;-1.00;99.90;;;;;;5044706;28;20041;-71
2023/12/02 07:33:16;;;;;;;8.40;4.70;;;-1.00;99.90;;;;;;5026334;28;20038;-71
2023/12/02 07:35:42;;;;;;;10.07;5.20;;;-1.00;99.90;;;;;;5032364;28;20072;-71
2023/12/02 07:38:08;;;;;;;5.90;3.47;;;-1.00;99.90;;;;;;5032104;28;20500;-70
2023/12/02 07:40:35;;;;;;;3.97;2.50;;;-1.00;99.90;;;;;;5048238;28;20530;-71
2023/12/02 07:43:03;;;;;;;5.43;3.70;;;-1.00;99.90;;;;;;5048861;28;20317;-71
2023/12/02 07:45:29;;;;;;;10.32;3.90;;;-0.90;99.90;;;;;;5025804;28;20037;-71
2023/12/02 07:47:55;;;;;;;8.98;4.57;;;-0.90;99.90;;;;;;5032008;28;20056;-71
2023/12/02 07:50:22;;;;;;;6.22;3.45;;;-0.90;99.90;;;;;;5047910;28;20590;-71
2023/12/02 07:52:47;;;;;;;8.93;3.85;;;-1.00;99.90;;;;;;5046192;28;20122;-71
2023/12/02 07:55:13;;;;;;;9.63;7.50;;;-0.90;99.90;;;;;;5047110;28;20083;-71
2023/12/02 07:57:39;;;;;;;31.52;19.42;;;-0.90;99.90;;;;;;5049424;28;20091;-71
2023/12/02 08:00:07;;;;;;;7.38;5.50;;;-0.80;99.90;;;;;;5045130;28;20041;-71
2023/12/02 08:02:33;;;;;;;8.13;4.28;;;-0.80;99.90;;;;;;5047416;28;20056;-71
2023/12/02 08:04:59;;;;;;;4.78;2.92;;;-0.80;99.90;;;;;;5044471;28;20112;-71
2023/12/02 08:07:25;;;;;;;4.57;3.45;;;-0.80;99.90;;;;;;5049453;28;20040;-71
2023/12/02 08:09:51;;;;;;;6.45;4.40;;;-0.80;99.90;;;;;;5048599;28;20049;-71
2023/12/02 08:12:17;;;;;;;6.25;3.78;;;-0.80;99.90;;;;;;5032293;28;20051;-71
2023/12/02 08:14:42;;;;;;;8.68;4.80;;;-0.70;99.90;;;;;;5049981;28;20072;-71
2023/12/02 08:17:08;;;;;;;6.80;4.00;;;-0.70;99.90;;;;;;5030446;28;20047;-71
2023/12/02 08:19:35;;;;;;;5.72;4.55;;;-0.70;99.90;;;;;;5048848;28;20041;-71
2023/12/02 08:22:01;;;;;;;3.22;2.28;;;-0.70;99.90;;;;;;5048475;28;20480;-71
2023/12/02 08:24:27;;;;;;;5.82;3.20;;;-0.70;99.90;;;;;;5049628;28;20102;-72
2023/12/02 08:26:52;;;;;;;6.28;3.88;;;-0.70;99.90;;;;;;5044224;28;20048;-72
2023/12/02 08:29:18;;;;;;;8.00;3.92;;;-0.70;99.90;;;;;;5033693;28;20045;-72
2023/12/02 08:31:44;;;;;;;9.93;5.68;;;-0.60;99.90;;;;;;5045234;28;20045;-72
2023/12/02 08:34:10;;;;;;;8.10;4.70;;;-0.60;99.90;;;;;;5048709;28;20465;-71
2023/12/02 08:36:35;;;;;;;4.72;2.70;;;-0.60;99.90;;;;;;5045902;28;20049;-72
2023/12/02 08:39:04;;;;;;;10.18;3.55;;;-0.60;99.90;;;;;;5048825;28;20168;-72
2023/12/02 08:41:30;;;;;;;5.50;4.47;;;-0.60;99.90;;;;;;5021873;28;20056;-72
2023/12/02 08:43:56;;;;;;;6.30;3.17;;;-0.50;99.90;;;;;;5049561;28;20468;-72
2023/12/02 08:46:22;;;;;;;7.60;3.35;;;-0.50;99.90;;;;;;5045644;28;20492;-72
2023/12/02 08:48:48;;;;;;;6.95;4.40;;;-0.50;99.90;;;;;;5050463;28;20055;-72
2023/12/02 08:51:14;;;;;;;9.05;4.18;;;-0.50;99.90;;;;;;5049612;28;20044;-72
2023/12/02 08:53:39;;;;;;;7.93;4.75;;;-0.40;99.90;;;;;;5046094;28;20045;-72
2023/12/02 08:56:06;;;;;;;9.77;5.57;;;-0.40;99.90;;;;;;5049049;28;20535;-72
2023/12/02 08:58:32;;;;;;;5.80;3.67;;;-0.40;99.90;;;;;;5048374;28;20427;-72
2023/12/02 09:00:58;;;;;;;4.20;3.30;;;-0.40;99.90;;;;;;5049368;28;20045;-72
2023/12/02 09:03:23;;;;;;;5.82;4.45;;;-0.30;99.90;;;;;;5046445;28;20045;-72
2023/12/02 09:05:55;;;;;;;7.88;5.03;;;-0.30;99.90;;;;;;5033305;28;20076;-73
2023/12/02 09:08:21;;;;;;;5.95;3.20;;;-0.30;99.90;;;;;;5045269;28;20041;-73
2023/12/02 09:10:47;;;;;;;7.28;4.72;;;-0.30;99.90;;;;;;5046974;28;20047;-72
2023/12/02 09:13:43;;;;;;;2.55;2.00;;;-0.30;99.90;;;;;;5045812;28;20482;-73
2023/12/02 09:16:22;;;;;;;10.35;4.10;;;-0.30;99.90;;;;;;5022928;28;20139;-72
2023/12/02 09:18:48;;;;;;;6.72;4.93;;;-0.20;99.90;;;;;;5045421;28;20049;-72
2023/12/02 09:21:20;;;;;;;8.95;4.20;;;-0.10;99.90;;;;;;5048539;28;20044;-72
2023/12/02 09:23:47;;;;;;;10.82;5.65;;;-0.10;99.90;;;;;;5046606;28;20044;-72
2023/12/02 09:26:28;;;;;;;7.63;3.78;;;0.00;99.90;;;;;;5059063;28;20045;-72
2023/12/02 09:28:55;;;;;;;5.72;4.10;;;0.10;99.90;;;;;;5047829;28;20033;-72
2023/12/02 09:31:21;;;;;;;3.17;2.80;;;0.20;99.90;;;;;;5047789;28;20033;-72
2023/12/02 09:33:54;;;;;;;8.27;5.75;;;0.20;99.90;;;;;;5045356;28;20045;-73
2023/12/02 09:36:33;;;;;;;6.03;4.65;;;0.30;99.90;;;;;;5046914;28;20040;-72
2023/12/02 09:39:22;;;;;;;5.28;2.88;;;0.40;99.90;;;;;;5046724;28;20485;-73
2023/12/02 09:41:49;;;;;;;9.20;4.20;;;0.50;99.90;;;;;;5047859;28;20045;-73
2023/12/02 09:44:24;;;;;;;9.38;3.78;;;0.60;99.90;;;;;;5045147;28;20056;-73
2023/12/02 09:47:12;;;;;;;4.53;2.75;;;0.70;99.90;;;;;;5048158;28;20076;-73
2023/12/02 09:49:56;;;;;;;4.53;3.13;;;0.80;99.90;;;;;;5046258;28;20057;-73
2023/12/02 09:52:35;;;;;;;8.95;3.17;;;1.00;99.90;;;;;;5047127;28;20086;-73
2023/12/02 09:55:13;;;;;;;8.32;4.88;;;1.10;99.90;;;;;;5046000;28;20541;-73
2023/12/02 09:58:05;;;;;;;6.03;4.05;;;1.20;99.90;;;;;;5030745;28;20123;-74
2023/12/02 10:00:42;;;;;;;8.38;6.13;;;1.30;99.90;;;;;;5042955;28;20056;-73
2023/12/02 10:03:45;;;;;;;8.10;4.82;;;1.30;99.90;;;;;;5045483;28;20094;-75
2023/12/02 10:06:38;;;;;;;7.70;4.80;;;1.40;99.90;;;;;;5045118;28;20055;-74
2023/12/02 10:09:27;;;;;;;3.58;3.10;;;1.40;99.90;;;;;;5046777;28;20324;-74
2023/12/02 10:12:30;;;;;;;4.80;3.22;;;1.50;99.90;;;;;;5044530;28;20049;-74
2023/12/02 10:15:01;;;;;;;8.32;3.88;;;1.60;99.90;;;;;;5038417;28;20041;-74
2023/12/02 10:17:30;;;;;;;8.25;3.33;;;1.70;99.90;;;;;;5033970;28;20214;-74
2023/12/02 10:20:09;;;;;;;4.57;3.60;;;1.70;99.90;;;;;;5033485;28;20447;-74
2023/12/02 10:22:58;;;;;;;7.40;4.50;;;1.70;99.90;;;;;;5038196;28;20378;-75
2023/12/02 10:25:54;;;;;;;5.88;3.33;;;1.80;99.90;;;;;;5027334;28;20485;-75
2023/12/02 10:28:25;;;;;;;4.30;3.47;;;1.80;99.90;;;;;;5044596;28;20095;-76
2023/12/02 10:30:54;;;;;;;9.77;3.47;;;1.90;99.90;;;;;;5026076;28;20346;-76
2023/12/02 10:33:27;;;;;;;5.95;2.75;;;2.00;99.90;;;;;;5042439;28;20037;-76
2023/12/02 10:36:00;;;;;;;6.85;4.75;;;2.00;99.90;;;;;;5018832;28;20056;-75
2023/12/02 10:38:49;;;;;;;6.20;3.70;;;2.10;99.90;;;;;;5025297;28;20036;-74
2023/12/02 10:41:30;;;;;;;4.55;3.00;;;2.10;99.90;;;;;;5042332;28;20516;-74
2023/12/02 10:44:00;;;;;;;5.35;3.67;;;2.10;99.90;;;;;;5026172;28;20037;-73
2023/12/02 10:46:26;;;;;;;5.40;4.03;;;2.10;99.90;;;;;;5041413;28;20060;-74
2023/12/02 10:48:54;;;;;;;8.75;5.72;;;2.10;99.90;;;;;;5039227;28;20052;-73
2023/12/02 10:51:22;;;;;;;4.32;2.35;;;2.10;99.90;;;;;;5042684;28;20420;-73
2023/12/02 10:53:50;;;;;;;7.05;4.18;;;2.10;99.90;;;;;;5044328;28;20496;-74
2023/12/02 10:56:23;;;;;;;11.70;5.75;;;2.00;99.90;;;;;;5043055;28;20045;-73
2023/12/02 10:58:52;;;;;;;8.98;3.63;;;2.00;99.90;;;;;;5043498;28;20056;-75
2023/12/02 11:01:58;;;;;;;7.68;4.18;;;2.00;99.90;;;;;;5044463;28;20503;-75
2023/12/02 11:04:26;;;;;;;;;;;2.10;99.90;;;;;;5017473;28;20052;-71
2023/12/02 11:07:03;;;;;;;9.90;5.05;;;2.20;99.90;;;;;;5043450;28;19936;-72
2023/12/02 11:09:54;;;;;;;7.32;4.32;;;2.20;99.90;;;;;;5047111;28;20075;-71
2023/12/02 11:12:34;;;;;;;8.98;4.55;;;2.20;99.90;;;;;;5048589;28;20087;-71
2023/12/02 11:15:09;;;;;;;6.75;3.53;;;2.30;99.90;;;;;;5044633;28;20425;-70
2023/12/02 11:17:39;;;;;;;6.68;3.67;;;2.30;99.90;;;;;;5037785;28;20047;-70
2023/12/02 11:20:48;;;;;;;5.60;3.08;;;2.20;99.90;;;;;;5044968;28;20061;-70
2023/12/02 11:23:53;;;;;;;5.95;4.28;;;2.10;99.90;;;;;;5046649;28;20060;-70
2023/12/02 11:26:39;;;;;;;12.00;6.13;;;2.10;99.90;;;;;;5027810;28;20053;-70
2023/12/02 11:29:15;;;;;;;;;;;2.10;99.90;;;;;;5049366;28;20120;-70
2023/12/02 11:32:05;;;;;;;5.88;4.43;;;2.10;99.90;;;;;;5032706;28;19921;-70
2023/12/02 11:35:16;;;;;;;7.95;2.67;;;2.20;99.90;;;;;;5049581;28;20129;-70
2023/12/02 11:38:18;;;;;;;4.18;2.42;;;2.20;99.90;;;;;;5042228;28;20524;-69
2023/12/02 11:41:17;;;;;;;5.93;3.38;;;2.30;99.90;;;;;;5053637;28;20409;-70
2023/12/02 11:44:09;;;;;;;6.22;3.97;;;2.40;99.90;;;;;;5050593;28;20103;-69
2023/12/02 11:46:49;;;;;;;7.25;3.78;;;2.50;99.90;;;;;;5045905;28;20082;-70
2023/12/02 11:49:40;;;;;;;10.90;4.50;;;2.50;99.90;;;;;;5048768;28;20048;-70
2023/12/02 11:52:24;;;;;;;10.05;4.13;;;2.60;99.90;;;;;;5048051;28;20080;-69
2023/12/02 11:55:07;;;;;;;10.73;4.15;;;2.70;99.90;;;;;;5049620;28;20068;-69
2023/12/02 11:58:02;;;;;;;7.13;3.55;;;2.70;99.90;;;;;;5048402;28;20186;-69
2023/12/02 12:01:02;;;;;;;7.30;4.40;;;2.70;99.90;;;;;;5046164;28;20485;-69
2023/12/02 12:03:49;;;;;;;7.57;3.50;;;2.70;99.90;;;;;;5029563;28;20037;-70
2023/12/02 12:06:34;;;;;;;5.60;3.28;;;2.70;99.90;;;;;;5049224;28;20048;-70
2023/12/02 12:09:43;;;;;;;5.75;4.43;;;2.60;99.90;;;;;;5044384;28;20091;-69
2023/12/02 12:12:11;;;;;;;6.55;4.03;;;2.60;99.90;;;;;;5038507;28;20127;-70
2023/12/02 12:14:39;;;;;;;6.88;4.15;;;2.60;99.90;;;;;;5048481;28;20147;-70
2023/12/02 12:17:06;;;;;;;8.05;5.32;;;2.60;99.90;;;;;;5047833;28;20052;-70
2023/12/02 12:19:32;;;;;;;5.25;3.92;;;2.70;99.90;;;;;;5046981;28;20045;-70
2023/12/02 12:21:58;;;;;;;8.93;5.20;;;2.70;99.90;;;;;;5046859;28;20095;-70
2023/12/02 12:24:23;;;;;;;6.10;3.83;;;2.60;99.90;;;;;;5049334;28;20087;-70
2023/12/02 12:26:49;;;;;;;8.88;5.25;;;2.70;99.90;;;;;;5046575;28;20139;-70
2023/12/02 12:29:15;;;;;;;7.18;2.97;;;2.70;99.90;;;;;;5049685;28;20033;-70
2023/12/02 12:31:45;;;;;;;5.13;2.92;;;2.70;99.90;;;;;;5047322;28;20553;-70
2023/12/02 12:34:12;;;;;;;7.15;4.47;;;2.70;99.90;;;;;;5042604;28;20039;-70
2023/12/02 12:36:39;;;;;;;7.20;4.05;;;2.70;99.90;;;;;;5048592;28;20045;-70
2023/12/02 12:39:07;;;;;;;8.50;4.72;;;2.70;99.90;;;;;;5029834;28;20527;-70
2023/12/02 12:41:36;;;;;;;6.47;3.53;;;2.70;99.90;;;;;;5047453;28;20041;-69
2023/12/02 12:44:04;;;;;;;8.40;4.78;;;2.70;99.90;;;;;;5045876;28;20065;-69
2023/12/02 12:46:30;;;;;;;6.88;3.80;;;2.80;99.90;;;;;;5046873;28;20056;-70
2023/12/02 12:48:56;;;;;;;5.68;3.30;;;2.80;99.90;;;;;;5045138;28;20548;-70
2023/12/02 12:51:23;;;;;;;7.07;4.10;;;2.80;99.90;;;;;;5046004;28;20168;-70
2023/12/02 12:54:05;;;;;;;6.85;3.88;;;2.80;99.90;;;;;;5044483;28;20069;-69
2023/12/02 12:56:37;;;;;;;7.32;4.25;;;2.90;99.90;;;;;;5047859;28;20048;-69
2023/12/02 12:59:03;;;;;;;8.18;3.75;;;2.90;99.90;;;;;;5048318;28;20091;-69
2023/12/02 13:01:33;;;;;;;7.40;3.95;;;2.90;99.90;;;;;;5046422;28;20126;-70
2023/12/02 13:04:17;;;;;;;4.55;2.92;;;2.90;99.90;;;;;;5045026;28;20084;-69